Time;durP1;ratioP1;P1;durP2;ratioP2;P2;SDS_P1;SDS_P2;PMS_P1;PMS_P2;Temp;Humidity;BMP_temperature;BMP_pressure;BME280_temperature;BME280_humidity;BME280_pressure;Samples;Min_cycle;Max_cycle;Signal;HPM_P1;HPM_P2
2023/01/25 00:01:16;;;;;;;11.57;5.40;;;;;;;1.97;85.76;93462.50;5055722;28;20045;-78
2023/01/25 00:03:42;;;;;;;10.07;5.07;;;;;;;1.98;85.66;93460.69;5056124;28;20040;-78
2023/01/25 00:06:08;;;;;;;15.30;6.25;;;;;;;1.99;85.85;93457.13;5054880;28;20507;-79
2023/01/25 00:08:33;;;;;;;10.45;5.70;;;;;;;2.02;86.50;93456.69;5055025;28;20041;-79
2023/01/25 00:10:59;;;;;;;11.88;6.05;;;;;;;2.01;87.02;93439.63;5054759;28;20064;-78
2023/01/25 00:13:25;;;;;;;10.68;5.53;;;;;;;1.99;86.68;93444.22;5055405;28;20452;-78
2023/01/25 00:15:52;;;;;;;8.55;5.05;;;;;;;1.98;86.76;93440.84;5055028;28;20067;-79
2023/01/25 00:18:17;;;;;;;10.38;5.10;;;;;;;1.97;86.94;93436.69;5037268;28;20106;-78
2023/01/25 00:20:43;;;;;;;11.23;5.47;;;;;;;1.99;86.48;93431.31;5054553;28;20148;-78
2023/01/25 00:23:08;;;;;;;10.60;5.38;;;;;;;1.98;87.09;93434.88;5055225;28;20112;-78
2023/01/25 00:25:34;;;;;;;8.38;5.15;;;;;;;1.98;87.36;93432.28;5053704;28;20061;-78
2023/01/25 00:28:00;;;;;;;11.55;5.20;;;;;;;1.98;87.70;93440.03;5037945;28;20041;-78
2023/01/25 00:30:25;;;;;;;11.40;5.53;;;;;;;1.98;87.54;93435.69;5055597;28;20519;-78
2023/01/25 00:33:26;;;;;;;11.05;5.70;;;;;;;2.00;87.85;93427.72;5054443;28;20124;-78
2023/01/25 00:35:55;;;;;;;10.07;5.38;;;;;;;1.96;88.77;93414.44;4959970;28;20433;-78
2023/01/25 00:38:32;;;;;;;10.50;5.35;;;;;;;1.99;88.65;93426.16;5036127;28;20458;-78
2023/01/25 00:40:58;;;;;;;13.57;5.63;;;;;;;1.99;88.39;93426.94;5037452;28;20045;-78
2023/01/25 00:43:24;;;;;;;11.18;5.53;;;;;;;1.97;88.09;93417.81;5055856;28;20028;-78
2023/01/25 00:45:49;;;;;;;12.48;5.70;;;;;;;2.01;88.36;93418.97;5054623;28;20521;-77
2023/01/25 00:48:15;;;;;;;11.25;5.57;;;;;;;2.01;89.65;93434.47;5054718;28;20032;-78
2023/01/25 00:50:41;;;;;;;9.77;5.30;;;;;;;2.01;89.61;93439.63;5037586;28;20075;-78
2023/01/25 00:53:06;;;;;;;11.10;5.15;;;;;;;2.00;89.39;93444.00;5039842;28;20037;-78
2023/01/25 00:55:32;;;;;;;12.73;5.55;;;;;;;1.97;89.15;93431.50;5054849;28;20032;-78
2023/01/25 00:57:58;;;;;;;12.32;6.03;;;;;;;1.99;88.93;93436.47;5020082;28;20482;-79
2023/01/25 01:00:23;;;;;;;10.60;5.38;;;;;;;2.06;88.73;93432.03;5036745;28;20366;-79
2023/01/25 01:02:49;;;;;;;10.32;5.40;;;;;;;2.06;90.06;93432.03;5036474;28;20041;-78
2023/01/25 01:05:15;;;;;;;10.20;5.40;;;;;;;2.05;89.85;93436.44;5036840;28;20114;-78
2023/01/25 01:07:40;;;;;;;10.02;5.28;;;;;;;2.02;90.48;93431.66;5020616;28;20029;-78
2023/01/25 01:10:06;;;;;;;10.30;5.22;;;;;;;2.00;90.79;93432.88;5031601;28;20052;-78
2023/01/25 01:12:32;;;;;;;10.85;5.40;;;;;;;1.99;90.81;93433.88;5037341;28;20037;-78
2023/01/25 01:14:58;;;;;;;11.20;5.75;;;;;;;1.98;90.64;93432.28;5054294;28;20053;-78
2023/01/25 01:17:23;;;;;;;11.88;5.70;;;;;;;1.98;91.10;93429.72;5032685;28;20037;-78
2023/01/25 01:19:49;;;;;;;9.85;5.75;;;;;;;1.99;91.22;93436.47;5016414;28;20087;-78
2023/01/25 01:22:14;;;;;;;13.15;5.97;;;;;;;1.98;90.81;93440.03;5025248;28;20072;-78
2023/01/25 01:24:41;;;;;;;10.48;5.38;;;;;;;1.98;91.01;93440.03;5036923;28;20045;-78
2023/01/25 01:27:07;;;;;;;12.40;5.80;;;;;;;1.96;90.05;93442.03;5036385;28;20139;-77
2023/01/25 01:29:34;;;;;;;11.65;5.60;;;;;;;1.98;90.27;93445.22;5054913;28;20077;-78
2023/01/25 01:31:59;;;;;;;10.90;5.57;;;;;;;1.97;91.46;93435.88;5054668;28;20044;-78
2023/01/25 01:34:25;;;;;;;10.52;5.30;;;;;;;1.95;91.37;93424.97;5036223;28;20116;-78
2023/01/25 01:36:52;;;;;;;11.15;5.70;;;;;;;1.95;91.24;93422.41;5034477;28;20136;-78
2023/01/25 01:39:18;;;;;;;10.23;5.45;;;;;;;1.95;91.03;93414.66;5035590;28;20872;-78
2023/01/25 01:41:44;;;;;;;10.20;5.30;;;;;;;1.95;91.78;93417.22;5036049;28;20041;-78
2023/01/25 01:44:17;;;;;;;9.20;5.05;;;;;;;1.95;92.37;93417.22;5035838;28;20037;-78
2023/01/25 01:46:53;;;;;;;13.20;5.07;;;;;;;1.95;92.01;93409.47;5035998;28;20091;-78
2023/01/25 01:49:26;;;;;;;13.25;5.22;;;;;;;1.97;91.96;93415.22;5033933;28;20045;-77
2023/01/25 01:52:01;;;;;;;9.05;4.30;;;;;;;1.98;92.15;93419.38;5050817;28;20507;-78
2023/01/25 01:54:56;;;;;;;10.07;4.95;;;;;;;1.96;92.53;93409.28;5033620;28;20610;-77
2023/01/25 01:57:28;;;;;;;9.20;4.72;;;;;;;1.98;91.92;93401.31;5021926;28;20033;-77
2023/01/25 02:00:01;;;;;;;9.00;4.72;;;;;;;1.97;92.35;93402.31;5033553;28;20049;-77
2023/01/25 02:02:40;;;;;;;9.82;4.55;;;;;;;1.94;92.29;93407.91;5051578;28;20041;-77
2023/01/25 02:05:11;;;;;;;11.20;4.95;;;;;;;1.93;92.03;93406.31;5017024;28;20049;-78
2023/01/25 02:07:38;;;;;;;12.35;4.55;;;;;;;1.91;91.77;93411.69;5031927;28;20499;-77
2023/01/25 02:10:08;;;;;;;9.38;4.25;;;;;;;1.87;91.79;93403.59;5050268;28;20045;-77
2023/01/25 02:12:34;;;;;;;8.13;4.28;;;;;;;1.93;91.64;93408.91;5032424;28;20041;-77
2023/01/25 02:15:00;;;;;;;8.10;4.22;;;;;;;1.93;90.67;93412.25;5032638;28;20044;-77
2023/01/25 02:17:28;;;;;;;9.45;4.50;;;;;;;1.91;89.79;93413.47;5028930;28;20404;-76
2023/01/25 02:20:16;;;;;;;8.20;4.97;;;;;;;1.90;90.81;93417.84;5012805;28;20556;-76
2023/01/25 02:22:58;;;;;;;7.90;4.50;;;;;;;1.87;89.98;93413.13;5017680;28;20041;-77
2023/01/25 02:25:24;;;;;;;10.20;4.50;;;;;;;1.84;90.55;93418.69;5028987;28;20407;-77
2023/01/25 02:27:59;;;;;;;8.60;4.38;;;;;;;1.78;91.04;93404.03;5039140;28;20357;-76
2023/01/25 02:30:25;;;;;;;8.57;4.05;;;;;;;1.75;91.85;93400.06;5032528;28;20045;-77
2023/01/25 02:32:51;;;;;;;9.18;4.15;;;;;;;1.71;92.07;93398.91;5050365;28;20048;-77
2023/01/25 02:35:20;;;;;;;8.65;4.55;;;;;;;1.69;91.27;93400.13;5050208;28;20117;-76
2023/01/25 02:37:46;;;;;;;9.35;4.60;;;;;;;1.66;91.64;93398.75;5032165;28;20461;-76
2023/01/25 02:40:11;;;;;;;9.20;4.57;;;;;;;1.63;91.94;93396.59;5032434;28;20118;-76
2023/01/25 02:42:41;;;;;;;9.63;5.10;;;;;;;1.62;92.13;93395.00;5049402;28;20510;-76
2023/01/25 02:45:10;;;;;;;8.80;4.95;;;;;;;1.59;92.12;93398.00;5032249;28;20143;-77
2023/01/25 02:47:35;;;;;;;12.02;5.20;;;;;;;1.57;91.79;93398.22;5023448;28;20091;-76
2023/01/25 02:50:02;;;;;;;10.75;5.28;;;;;;;1.54;91.87;93387.53;5022734;28;20053;-77
2023/01/25 02:52:28;;;;;;;15.18;5.22;;;;;;;1.54;92.27;93398.63;5032328;28;20044;-77
2023/01/25 02:54:54;;;;;;;9.57;4.80;;;;;;;1.55;92.16;93391.69;5017968;28;20041;-76
2023/01/25 02:57:20;;;;;;;11.02;5.35;;;;;;;1.49;92.03;93384.75;5035804;28;20045;-76
2023/01/25 02:59:45;;;;;;;10.43;5.28;;;;;;;1.53;92.39;93401.41;5064810;28;20049;-76
2023/01/25 03:02:13;;;;;;;10.95;5.10;;;;;;;1.53;92.15;93397.06;5055726;28;20398;-77
2023/01/25 03:04:39;;;;;;;11.40;5.25;;;;;;;1.53;92.77;93396.25;5038457;28;20052;-77
2023/01/25 03:07:05;;;;;;;10.30;4.95;;;;;;;1.50;92.77;93381.97;5053129;28;20112;-77
2023/01/25 03:09:31;;;;;;;9.70;5.00;;;;;;;1.54;92.75;93387.53;5036057;28;20132;-78
2023/01/25 03:11:57;;;;;;;10.82;4.40;;;;;;;1.54;92.70;93384.94;5036387;28;20121;-77
2023/01/25 03:14:23;;;;;;;7.35;4.00;;;;;;;1.54;92.28;93379.78;5053004;28;20775;-77
2023/01/25 03:16:48;;;;;;;9.70;4.43;;;;;;;1.54;92.23;93382.38;5054146;28;20037;-77
2023/01/25 03:19:17;;;;;;;8.98;4.55;;;;;;;1.52;92.68;93371.47;5018763;28;20140;-77
2023/01/25 03:21:42;;;;;;;10.05;4.80;;;;;;;1.49;92.48;93384.75;5035643;28;20079;-76
2023/01/25 03:24:09;;;;;;;8.00;4.55;;;;;;;1.47;92.45;93386.78;5053490;28;20437;-77
2023/01/25 03:29:32;;;;;;;8.48;4.40;;;;;;;1.41;92.36;93393.53;5019037;28;20407;-76
2023/01/25 03:31:58;;;;;;;7.35;4.00;;;;;;;1.41;91.14;93391.75;5015387;28;20053;-76
2023/01/25 03:34:24;;;;;;;8.05;4.28;;;;;;;1.41;89.71;93391.75;5015579;28;20099;-76
2023/01/25 03:36:50;;;;;;;6.82;3.70;;;;;;;1.40;87.93;93392.75;4999557;28;20175;-77
2023/01/25 03:39:16;;;;;;;5.97;3.28;;;;;;;1.40;85.52;93392.75;5015430;28;20441;-76
2023/01/25 03:41:42;;;;;;;10.82;3.63;;;;;;;1.35;84.88;93397.75;5033457;28;20045;-77
2023/01/25 03:44:10;;;;;;;9.52;3.42;;;;;;;1.34;85.33;93393.59;5021072;28;20063;-79
2023/01/25 03:46:40;;;;;;;8.57;3.70;;;;;;;1.29;85.73;93385.69;5029327;28;20136;-79
2023/01/25 03:49:06;;;;;;;7.60;3.88;;;;;;;1.24;85.86;93382.94;5028563;28;20074;-79
2023/01/25 03:51:33;;;;;;;6.50;3.85;;;;;;;1.20;85.81;93392.09;5020440;28;20052;-78
2023/01/25 03:53:58;;;;;;;9.00;4.07;;;;;;;1.16;86.03;93388.31;5039322;28;20191;-79
2023/01/25 03:56:24;;;;;;;7.18;4.28;;;;;;;1.17;86.24;93387.31;5022428;28;20072;-79
2023/01/25 03:58:57;;;;;;;8.07;4.20;;;;;;;1.15;86.24;93381.56;5009062;28;20048;-79
2023/01/25 04:01:23;;;;;;;8.00;4.70;;;;;;;1.14;86.05;93374.84;5015358;28;20121;-79
2023/01/25 04:03:49;;;;;;;9.75;4.82;;;;;;;1.11;86.92;93372.69;4998069;28;20554;-78
2023/01/25 04:06:15;;;;;;;9.35;4.40;;;;;;;1.09;87.89;93364.38;4999495;28;20103;-79
2023/01/25 04:08:42;;;;;;;10.95;4.95;;;;;;;1.07;88.06;93361.19;5013575;28;20140;-79
2023/01/25 04:11:08;;;;;;;11.02;5.80;;;;;;;1.03;88.26;93366.75;5014919;28;20046;-79
2023/01/25 04:13:35;;;;;;;14.05;7.43;;;;;;;1.04;90.09;93368.34;5008686;28;20041;-78
2023/01/25 04:16:06;;;;;;;18.73;8.55;;;;;;;1.26;96.87;93362.84;4998265;28;20046;-78
2023/01/25 04:19:01;;;;;;;19.27;10.00;;;;;;;1.23;98.35;93358.13;5033820;28;20049;-78
2023/01/25 04:21:28;;;;;;;25.63;11.77;;;;;;;1.22;99.46;93365.09;5021734;28;20502;-78
2023/01/25 04:23:54;;;;;;;25.45;13.00;;;;;;;1.21;100.00;93378.16;5017065;28;20077;-78
2023/01/25 04:26:20;;;;;;;29.30;13.95;;;;;;;1.19;100.00;93375.00;5052948;28;20118;-78
2023/01/25 04:28:51;;;;;;;35.40;14.90;;;;;;;1.16;100.00;93371.06;5033357;28;21064;-77
2023/01/25 04:31:17;;;;;;;29.33;14.55;;;;;;;1.15;100.00;93374.66;5015030;28;20085;-78
2023/01/25 04:33:43;;;;;;;27.08;14.02;;;;;;;1.12;100.00;93379.41;5014772;28;20376;-77
2023/01/25 04:36:11;;;;;;;27.77;11.90;;;;;;;1.04;100.00;93373.50;5014977;28;20056;-77
2023/01/25 04:38:36;;;;;;;21.35;10.48;;;;;;;1.03;100.00;93371.91;4999236;28;20042;-78
2023/01/25 04:41:04;;;;;;;18.63;9.65;;;;;;;0.97;100.00;93354.69;5010920;28;20049;-77
2023/01/25 04:43:30;;;;;;;22.10;9.82;;;;;;;0.93;100.00;93360.47;4995606;28;20103;-77
2023/01/25 04:46:01;;;;;;;21.67;11.40;;;;;;;0.89;100.00;93359.28;4979573;28;20058;-77
2023/01/25 04:48:30;;;;;;;23.70;11.77;;;;;;;0.91;100.00;93360.66;4994857;28;20057;-77
2023/01/25 04:50:59;;;;;;;28.83;13.55;;;;;;;0.90;100.00;93360.88;5008981;28;20046;-77
2023/01/25 04:53:25;;;;;;;31.25;14.02;;;;;;;0.89;100.00;93348.97;5014382;28;20127;-78
2023/01/25 04:55:52;;;;;;;31.17;14.38;;;;;;;0.88;100.00;93348.19;5018018;28;20100;-78
2023/01/25 04:58:19;;;;;;;27.33;12.98;;;;;;;0.86;100.00;93347.59;5048624;28;20531;-78
2023/01/25 05:00:44;;;;;;;24.95;12.48;;;;;;;0.80;100.00;93349.19;5024317;28;20131;-78
2023/01/25 05:03:10;;;;;;;27.35;12.43;;;;;;;0.72;100.00;93341.72;5032254;28;20065;-77
2023/01/25 05:05:36;;;;;;;28.25;13.68;;;;;;;0.73;100.00;93350.25;5014426;28;20044;-78
2023/01/25 05:08:07;;;;;;;30.23;12.82;;;;;;;0.70;100.00;93348.06;5015379;28;20046;-78
2023/01/25 05:10:33;;;;;;;25.23;12.40;;;;;;;0.66;100.00;93349.47;5015610;28;20057;-78
2023/01/25 05:13:37;;;;;;;20.38;10.68;;;;;;;0.59;100.00;93336.63;5025285;28;20103;-78
2023/01/25 05:16:26;;;;;;;22.60;8.90;;;;;;;0.50;100.00;93333.47;5031504;28;20067;-78
2023/01/25 05:18:54;;;;;;;18.25;9.15;;;;;;;0.45;100.00;93333.28;5030791;28;20140;-77
2023/01/25 05:24:08;;;;;;;16.08;7.22;;;;;;;0.38;100.00;93327.34;4999100;28;20029;-78
2023/01/25 05:29:18;;;;;;;14.75;8.43;;;;;;;0.33;100.00;93319.44;5030434;28;20053;-78
2023/01/25 05:31:50;;;;;;;16.73;8.05;;;;;;;0.28;100.00;93317.47;5013134;28;20140;-78
2023/01/25 05:34:16;;;;;;;16.80;7.80;;;;;;;0.29;100.00;93318.25;5011314;28;20042;-78
2023/01/25 05:36:42;;;;;;;14.13;6.93;;;;;;;0.23;100.00;93316.53;5009637;28;20037;-78
2023/01/25 05:39:07;;;;;;;12.27;5.75;;;;;;;0.19;100.00;93316.91;5021294;28;20045;-77
2023/01/25 05:41:33;;;;;;;11.25;6.20;;;;;;;0.17;100.00;93316.31;5014754;28;20048;-77
2023/01/25 05:44:00;;;;;;;11.85;5.65;;;;;;;0.15;100.00;93312.38;5004925;28;20058;-76
2023/01/25 05:46:27;;;;;;;11.73;5.55;;;;;;;0.11;100.00;93306.84;5015877;28;20076;-77
2023/01/25 05:48:53;;;;;;;13.05;6.75;;;;;;;0.10;100.00;93312.19;5011562;28;20045;-77
2023/01/25 05:51:20;;;;;;;12.95;6.03;;;;;;;0.08;100.00;93314.94;5011854;28;20412;-78
2023/01/25 05:53:46;;;;;;;10.60;6.00;;;;;;;0.06;100.00;93308.41;4998608;28;20050;-76
2023/01/25 05:56:12;;;;;;;13.95;5.80;;;;;;;0.03;100.00;93304.47;4998342;28;20084;-76
2023/01/25 05:58:39;;;;;;;10.02;5.57;;;;;;;0.03;100.00;93314.78;5010108;28;20057;-77
2023/01/25 06:01:06;;;;;;;9.98;4.40;;;;;;;0.02;100.00;93308.03;5008943;28;20176;-79
2023/01/25 06:03:41;;;;;;;8.20;4.70;;;;;;;-0.02;100.00;93301.72;5010340;28;20063;-76
2023/01/25 06:06:07;;;;;;;10.45;5.07;;;;;;;-0.05;100.00;93302.09;5008309;28;20052;-77
2023/01/25 06:08:34;;;;;;;10.02;5.05;;;;;;;-0.06;100.00;93297.97;5015173;28;20053;-78
2023/01/25 06:11:08;;;;;;;14.93;5.18;;;;;;;-0.07;100.00;93304.09;4993602;28;20462;-78
2023/01/25 06:13:35;;;;;;;11.35;5.43;;;;;;;-0.10;100.00;93294.19;5007875;28;20053;-77
2023/01/25 06:16:03;;;;;;;12.07;5.57;;;;;;;-0.09;100.00;93296.56;5010252;28;20038;-77
2023/01/25 06:18:48;;;;;;;12.70;6.40;;;;;;;-0.12;100.00;93291.81;5006926;28;20701;-77
2023/01/25 06:21:40;;;;;;;14.77;6.53;;;;;;;-0.09;100.00;93298.34;4996465;28;20169;-78
2023/01/25 06:24:06;;;;;;;11.75;5.88;;;;;;;-0.11;100.00;93301.13;5012187;28;20132;-77
2023/01/25 06:26:33;;;;;;;15.38;5.57;;;;;;;-0.09;100.00;93295.75;5029452;28;20129;-78
2023/01/25 06:28:58;;;;;;;12.40;5.88;;;;;;;-0.09;100.00;93290.63;5030147;28;20064;-77
2023/01/25 06:31:24;;;;;;;13.40;6.57;;;;;;;-0.07;100.00;93286.06;5032852;28;20508;-78
2023/01/25 06:33:51;;;;;;;11.50;6.25;;;;;;;-0.07;100.00;93280.91;5033904;28;20045;-80
2023/01/25 06:36:20;;;;;;;13.45;6.85;;;;;;;-0.08;100.00;93281.91;5033287;28;20053;-78
2023/01/25 06:38:51;;;;;;;13.00;5.90;;;;;;;-0.12;100.00;93280.72;5034765;28;20099;-78
2023/01/25 06:41:18;;;;;;;13.05;5.50;;;;;;;-0.16;100.00;93269.25;5034922;28;20064;-78
2023/01/25 06:43:44;;;;;;;9.38;5.20;;;;;;;-0.13;100.00;93279.16;5034680;28;20033;-77
2023/01/25 06:46:13;;;;;;;11.65;5.93;;;;;;;-0.16;100.00;93275.19;5034370;28;20068;-77
2023/01/25 06:48:41;;;;;;;14.90;5.97;;;;;;;-0.18;100.00;93274.63;5034699;28;20755;-78
2023/01/25 06:51:09;;;;;;;15.07;5.88;;;;;;;-0.18;100.00;93271.22;5034540;28;20065;-78
2023/01/25 06:53:38;;;;;;;12.35;5.72;;;;;;;-0.20;100.00;93266.31;5033933;28;20072;-77
2023/01/25 06:56:13;;;;;;;10.88;5.45;;;;;;;-0.24;100.00;93268.47;5033727;28;20045;-78
2023/01/25 06:58:39;;;;;;;12.60;5.45;;;;;;;-0.26;100.00;93260.16;5033630;28;20033;-77
2023/01/25 07:01:26;;;;;;;12.07;6.63;;;;;;;-0.27;100.00;93265.50;5035326;28;20029;-78
2023/01/25 07:03:57;;;;;;;11.48;6.43;;;;;;;-0.27;100.00;93265.50;5036270;28;20044;-79
2023/01/25 07:06:24;;;;;;;12.43;6.23;;;;;;;-0.25;100.00;93260.94;5030967;28;20500;-78
2023/01/25 07:08:50;;;;;;;13.30;6.32;;;;;;;-0.25;100.00;93269.47;5016638;28;20077;-77
2023/01/25 07:11:17;;;;;;;10.73;4.80;;;;;;;-0.25;100.00;93264.34;4997127;28;20127;-77
2023/01/25 07:13:44;;;;;;;13.63;4.55;;;;;;;-0.20;100.00;93263.72;5014634;28;20050;-78
2023/01/25 07:16:13;;;;;;;13.50;4.28;;;;;;;-0.16;100.00;93256.38;5034454;28;20042;-77
2023/01/25 07:18:39;;;;;;;15.48;4.78;;;;;;;-0.16;100.00;93254.59;5041793;28;20057;-78
2023/01/25 07:21:11;;;;;;;10.50;5.32;;;;;;;-0.16;100.00;93248.66;5055544;28;20537;-78
2023/01/25 07:23:37;;;;;;;13.55;5.97;;;;;;;-0.11;100.00;93243.69;5052616;28;20053;-78
2023/01/25 07:26:04;;;;;;;10.25;5.10;;;;;;;-0.08;100.00;93253.59;5055787;28;20079;-78
2023/01/25 07:28:30;;;;;;;14.55;5.00;;;;;;;-0.06;100.00;93254.97;5054418;28;20049;-78
2023/01/25 07:31:02;;;;;;;8.82;4.25;;;;;;;-0.01;100.00;93260.31;5055192;28;20037;-78
2023/01/25 07:33:28;;;;;;;8.40;3.70;;;;;;;0.03;97.37;93252.19;5054371;28;20068;-77
2023/01/25 07:35:59;;;;;;;7.40;3.75;;;;;;;0.02;96.15;93248.81;5049822;28;20029;-78
2023/01/25 07:38:24;;;;;;;10.75;4.68;;;;;;;0.04;95.55;93254.56;5047164;28;20061;-78
2023/01/25 07:40:52;;;;;;;8.90;4.25;;;;;;;0.06;96.53;93257.72;5045207;28;20467;-78
2023/01/25 07:43:18;;;;;;;7.72;4.05;;;;;;;0.11;95.67;93252.78;5045800;28;20061;-78
2023/01/25 07:45:47;;;;;;;8.32;3.83;;;;;;;0.15;95.00;93255.72;5024858;28;20098;-78
2023/01/25 07:48:13;;;;;;;12.95;4.13;;;;;;;0.18;94.38;93256.13;5054056;28;20049;-77
2023/01/25 07:50:40;;;;;;;10.70;4.15;;;;;;;0.22;94.38;93250.53;5044740;28;20037;-78
2023/01/25 07:53:06;;;;;;;8.05;3.90;;;;;;;0.26;93.61;93247.34;5047973;28;20061;-79
2023/01/25 07:55:32;;;;;;;8.55;4.05;;;;;;;0.32;93.43;93238.81;5056482;28;20052;-79
2023/01/25 07:57:59;;;;;;;10.70;4.38;;;;;;;0.38;92.80;93243.16;5055684;28;20482;-78
2023/01/25 08:00:25;;;;;;;10.85;4.28;;;;;;;0.42;92.11;93253.81;5056402;28;20045;-78
2023/01/25 08:02:51;;;;;;;9.18;4.22;;;;;;;0.52;91.26;93258.53;5056661;28;20094;-78
2023/01/25 08:05:18;;;;;;;7.57;3.85;;;;;;;0.61;90.43;93245.22;5037465;28;20045;-79
2023/01/25 08:07:44;;;;;;;6.75;3.50;;;;;;;0.71;88.16;93249.13;5018949;28;20060;-78
2023/01/25 08:10:10;;;;;;;6.50;3.47;;;;;;;0.85;88.79;93250.63;5047376;28;20061;-77
2023/01/25 08:12:36;;;;;;;8.48;3.45;;;;;;;1.03;87.84;93250.72;5021329;28;20045;-78
2023/01/25 08:15:03;;;;;;;7.32;3.75;;;;;;;1.32;85.96;93251.13;5053475;28;20116;-77
2023/01/25 08:17:31;;;;;;;7.63;3.30;;;;;;;1.54;84.53;93253.34;5036733;28;20097;-79
2023/01/25 08:19:58;;;;;;;9.50;3.78;;;;;;;1.68;81.48;93234.13;5067679;28;20402;-78
2023/01/25 08:22:25;;;;;;;10.45;4.50;;;;;;;2.22;79.24;93250.66;5059459;28;20041;-78
2023/01/25 08:24:50;;;;;;;7.80;4.13;;;;;;;3.07;77.64;93249.03;5054443;28;20511;-78
2023/01/25 08:27:16;;;;;;;11.30;5.30;;;;;;;3.78;71.11;93241.34;5046787;28;20227;-77
2023/01/25 08:29:41;;;;;;;9.75;5.05;;;;;;;4.05;72.26;93232.09;5055057;28;20086;-78
2023/01/25 08:32:07;;;;;;;12.02;5.72;;;;;;;4.17;72.03;93237.28;5063031;28;20037;-78
2023/01/25 08:34:33;;;;;;;11.52;6.35;;;;;;;4.12;73.15;93229.38;5017466;28;20041;-78
2023/01/25 08:36:59;;;;;;;13.02;5.63;;;;;;;4.14;72.76;93222.16;5052710;28;20053;-77
2023/01/25 08:39:25;;;;;;;12.98;5.93;;;;;;;4.10;69.55;93218.47;5060338;28;20052;-77
2023/01/25 08:41:51;;;;;;;13.75;5.30;;;;;;;4.00;70.55;93218.25;5052490;28;20087;-77
2023/01/25 08:44:21;;;;;;;11.85;5.25;;;;;;;4.05;69.67;93226.13;5052707;28;20087;-77
2023/01/25 08:46:46;;;;;;;27.42;8.05;;;;;;;4.02;72.40;93224.00;5053155;28;20403;-79
2023/01/25 08:49:12;;;;;;;16.60;8.10;;;;;;;3.95;74.45;93211.94;5026572;28;20051;-78
2023/01/25 08:51:38;;;;;;;15.02;7.82;;;;;;;3.82;75.63;93219.94;5042706;28;20049;-78
2023/01/25 08:54:10;;;;;;;16.40;8.18;;;;;;;3.87;77.08;93219.28;5038299;28;20029;-78
2023/01/25 08:56:38;;;;;;;15.85;7.68;;;;;;;3.68;79.21;93210.84;5056329;28;20421;-78
2023/01/25 08:59:04;;;;;;;13.88;7.70;;;;;;;3.48;77.12;93219.72;5023129;28;20499;-78
2023/01/25 09:01:30;;;;;;;15.07;7.28;;;;;;;3.44;79.28;93210.81;5022203;28;20886;-78
2023/01/25 09:03:57;;;;;;;70.68;10.30;;;;;;;3.07;81.18;93199.88;5051892;28;20034;-78
2023/01/25 09:06:22;;;;;;;17.20;6.95;;;;;;;2.87;83.04;93200.94;5051990;28;20098;-78
2023/01/25 09:08:48;;;;;;;14.60;6.80;;;;;;;2.93;81.82;93204.47;5053467;28;20124;-79
2023/01/25 09:11:17;;;;;;;15.13;7.80;;;;;;;2.88;81.10;93201.72;5032438;28;20116;-78
2023/01/25 09:13:42;;;;;;;15.10;7.03;;;;;;;2.91;81.08;93206.47;5068444;28;20048;-77
2023/01/25 09:16:11;;;;;;;14.90;7.75;;;;;;;2.91;81.94;93203.88;5067400;28;20048;-77
2023/01/25 09:18:38;;;;;;;12.98;7.10;;;;;;;2.98;81.07;93196.81;5053199;28;20092;-78
2023/01/25 09:21:10;;;;;;;15.10;7.05;;;;;;;3.10;80.56;93210.53;5048762;28;20043;-78
2023/01/25 09:23:37;;;;;;;14.00;6.45;;;;;;;3.08;77.41;93204.81;5039482;28;20574;-78
2023/01/25 09:26:03;;;;;;;13.02;5.70;;;;;;;3.25;74.72;93209.34;5033729;28;20072;-78
2023/01/25 09:28:30;;;;;;;10.70;5.53;;;;;;;3.16;74.79;93205.50;5026098;28;20344;-79
2023/01/25 09:31:01;;;;;;;11.93;6.03;;;;;;;3.36;75.10;93203.41;5033535;28;20096;-78
2023/01/25 09:33:46;;;;;;;11.63;6.20;;;;;;;3.64;74.54;93204.53;5034296;28;20076;-79
2023/01/25 09:36:12;;;;;;;10.55;5.80;;;;;;;3.89;73.39;93201.69;5036987;28;20053;-80
2023/01/25 09:38:37;;;;;;;11.02;5.43;;;;;;;4.14;71.77;93198.84;5041238;28;20126;-79
2023/01/25 09:41:03;;;;;;;10.52;5.57;;;;;;;4.51;69.67;93196.72;5035161;28;20148;-79
2023/01/25 09:43:50;;;;;;;13.57;6.20;;;;;;;4.73;71.79;93202.06;5034538;28;20120;-80
2023/01/25 09:46:34;;;;;;;13.00;6.28;;;;;;;4.29;72.44;93201.75;5034402;28;20048;-81
2023/01/25 09:49:41;;;;;;;18.60;7.63;;;;;;;4.16;76.02;93196.81;5024240;28;20049;-79
2023/01/25 09:52:06;;;;;;;15.77;7.10;;;;;;;4.02;77.08;93198.88;5032363;28;20080;-78
2023/01/25 09:54:38;;;;;;;15.07;7.38;;;;;;;4.06;76.04;93194.03;5032779;28;20076;-78
2023/01/25 09:57:13;;;;;;;13.55;6.40;;;;;;;4.24;73.14;93193.09;5033559;28;20041;-77
2023/01/25 09:59:40;;;;;;;18.67;7.82;;;;;;;4.01;77.91;93194.72;5019704;28;20073;-77
2023/01/25 10:02:23;;;;;;;17.55;7.50;;;;;;;4.07;77.76;93198.97;5025385;28;20112;-77
2023/01/25 10:04:52;;;;;;;14.07;7.00;;;;;;;4.30;74.17;93195.56;5032583;28;20076;-78
2023/01/25 10:07:32;;;;;;;11.48;6.60;;;;;;;4.98;71.11;93196.53;5033830;28;20067;-78
2023/01/25 10:10:10;;;;;;;14.60;7.20;;;;;;;5.27;69.26;93198.25;5032860;28;20087;-79
2023/01/25 10:12:38;;;;;;;14.00;5.97;;;;;;;5.37;71.12;93195.84;5033914;28;20041;-78
2023/01/25 10:15:28;;;;;;;18.38;7.95;;;;;;;5.42;70.08;93193.31;5008823;28;20107;-79
2023/01/25 10:18:17;;;;;;;15.75;7.07;;;;;;;5.46;70.48;93189.22;5016418;28;20056;-78
2023/01/25 10:20:55;;;;;;;14.27;7.70;;;;;;;5.43;67.97;93190.50;5015443;28;20080;-78
2023/01/25 10:23:27;;;;;;;16.77;6.93;;;;;;;5.59;68.17;93188.13;5035119;28;20105;-78
2023/01/25 10:26:03;;;;;;;18.88;7.30;;;;;;;5.47;68.21;93182.22;5010677;28;20046;-78
2023/01/25 10:29:02;;;;;;;19.05;7.00;;;;;;;5.49;67.53;93183.53;5032337;28;20165;-78
2023/01/25 10:31:43;;;;;;;15.27;7.70;;;;;;;5.96;66.75;93175.41;5023272;28;20034;-78
2023/01/25 10:34:34;;;;;;;16.17;7.68;;;;;;;6.38;64.56;93176.69;5007150;28;20401;-78
2023/01/25 10:37:11;;;;;;;17.60;7.43;;;;;;;6.72;63.92;93166.13;5022322;28;20092;-78
2023/01/25 10:39:45;;;;;;;12.05;6.15;;;;;;;6.88;61.99;93171.22;5000568;28;20045;-79
2023/01/25 10:42:14;;;;;;;12.80;7.15;;;;;;;6.16;65.03;93166.28;5031902;28;20042;-78
2023/01/25 10:44:39;;;;;;;16.27;7.95;;;;;;;5.41;68.61;93168.38;5020163;28;20380;-79
2023/01/25 10:47:30;;;;;;;20.95;8.98;;;;;;;5.63;68.91;93168.44;5033188;28;20064;-78
2023/01/25 10:49:57;;;;;;;16.17;6.90;;;;;;;5.76;68.65;93172.50;5015254;28;20048;-78
2023/01/25 10:52:31;;;;;;;15.30;8.10;;;;;;;5.86;68.49;93162.25;5014447;28;20037;-78
2023/01/25 10:55:14;;;;;;;21.38;7.95;;;;;;;5.95;67.39;93171.22;5025891;28;20048;-79
2023/01/25 10:57:46;;;;;;;14.15;7.13;;;;;;;5.69;67.91;93171.88;5019478;28;20455;-78
2023/01/25 11:00:26;;;;;;;17.30;8.43;;;;;;;5.76;67.78;93169.91;5039458;28;20395;-78
2023/01/25 11:02:52;;;;;;;13.93;7.20;;;;;;;5.83;68.28;93167.91;5026704;28;20044;-79
2023/01/25 11:05:18;;;;;;;14.45;6.90;;;;;;;5.68;67.75;93170.31;5037824;28;20038;-78
2023/01/25 11:07:45;;;;;;;18.08;8.32;;;;;;;6.02;67.51;93160.66;5040259;28;20042;-77
2023/01/25 11:10:29;;;;;;;16.50;8.23;;;;;;;6.55;65.58;93153.19;5037665;28;20040;-78
2023/01/25 11:13:16;;;;;;;16.25;7.80;;;;;;;6.80;63.25;93150.06;5034464;28;20104;-78
2023/01/25 11:15:51;;;;;;;16.85;7.95;;;;;;;6.44;61.63;93145.28;5021952;28;20041;-78
2023/01/25 11:18:34;;;;;;;13.23;6.80;;;;;;;6.39;60.88;93147.81;5034275;28;20108;-80
2023/01/25 11:21:17;;;;;;;14.50;7.20;;;;;;;6.29;61.38;93149.53;5024700;28;20057;-78
2023/01/25 11:24:08;;;;;;;17.10;7.13;;;;;;;6.46;60.80;93132.84;5043615;28;20691;-78
2023/01/25 11:26:36;;;;;;;12.70;6.05;;;;;;;6.29;61.50;93139.94;5018538;28;20040;-78
2023/01/25 11:29:20;;;;;;;18.58;8.60;;;;;;;6.56;62.79;93128.78;5043670;28;20033;-78
2023/01/25 11:31:53;;;;;;;17.15;8.50;;;;;;;6.32;63.09;93129.03;5020448;28;20597;-79
2023/01/25 11:34:24;;;;;;;15.27;8.10;;;;;;;6.32;64.37;93123.81;5033081;28;20042;-78
2023/01/25 11:37:08;;;;;;;21.38;10.73;;;;;;;6.63;63.01;93119.72;5033736;28;20119;-79
2023/01/25 11:39:36;;;;;;;22.00;10.40;;;;;;;6.70;64.39;93124.72;5031866;28;20124;-79
2023/01/25 11:42:08;;;;;;;17.45;9.60;;;;;;;6.43;65.51;93117.69;4997560;28;20044;-79
2023/01/25 11:45:04;;;;;;;20.93;10.90;;;;;;;6.62;65.43;93106.94;5030840;28;20038;-78
2023/01/25 11:48:05;;;;;;;18.95;9.00;;;;;;;6.10;67.25;93104.88;5031972;28;20290;-77
2023/01/25 11:50:45;;;;;;;26.55;13.40;;;;;;;6.23;66.16;93091.50;5014026;28;20045;-77
2023/01/25 11:53:45;;;;;;;21.02;10.65;;;;;;;6.00;68.74;93098.53;5051587;28;20096;-78